Terminal Aerodrome Forecast
Issued by NWS Columbia, SC

Home | Current Version | Previous Version | Text Only | Print | Product List | Glossary On
Versions: 1 2 3 4 5 6 7 8 9 10 11 12 13 14 15 16 17 18 19 20 21 22 23 24 25 26 27 28 29 30 31 32 33 34 35 36 37 38 39 40 41 42 43 44
000
FTUS42 KCAE 311700
TAFAGS
TAF
KAGS 311730Z 3118/0118 08008KT P6SM VCSH BKN025 OVC060
      TEMPO 3118/3121 2SM SHRA
     FM312100 07008KT P6SM VCSH SCT025 OVC050
     FM010500 VRB03KT 4SM BR OVC015
     FM010800 VRB03KT 4SM BR OVC007
     FM011500 05005KT P6SM OVC015=

USA.gov is the U.S. government's official web portal to all federal, state and local government web resources and services.